Time;durP1;ratioP1;P1;durP2;ratioP2;P2;SDS_P1;SDS_P2;PMS_P1;PMS_P2;Temp;Humidity;BMP_temperature;BMP_pressure;BME280_temperature;BME280_humidity;BME280_pressure;Samples;Min_cycle;Max_cycle;Signal;HPM_P1;HPM_P2
2023/03/27 00:01:12;;;;;;;11.80;1.67;;;;;;;1.67;100.00;99899.78;6239760;23;20408;-73
2023/03/27 00:03:39;;;;;;;11.00;1.77;;;;;;;1.71;100.00;99905.66;6241158;23;20394;-72
2023/03/27 00:06:10;;;;;;;11.35;2.00;;;;;;;1.76;100.00;99908.78;6240585;23;20040;-72
2023/03/27 00:08:37;;;;;;;14.65;1.60;;;;;;;1.68;100.00;99913.81;6241087;23;20024;-73
2023/03/27 00:11:04;;;;;;;7.90;1.75;;;;;;;1.70;100.00;99915.41;6239049;23;20348;-72
2023/03/27 00:13:31;;;;;;;9.57;1.80;;;;;;;1.66;100.00;99918.41;6240377;23;20024;-72
2023/03/27 00:15:58;;;;;;;12.05;2.00;;;;;;;1.65;100.00;99925.50;6230425;23;20026;-72
2023/03/27 00:18:26;;;;;;;9.85;1.70;;;;;;;1.65;100.00;99932.59;6241135;23;20353;-72
2023/03/27 00:20:55;;;;;;;9.88;2.30;;;;;;;1.63;100.00;99927.41;6238334;23;20078;-72
2023/03/27 00:23:22;;;;;;;11.18;1.73;;;;;;;1.61;100.00;99933.78;6240839;23;20020;-72
2023/03/27 00:25:49;;;;;;;11.55;1.92;;;;;;;1.55;100.00;99943.06;6240367;23;20058;-72
2023/03/27 00:28:16;;;;;;;7.68;1.67;;;;;;;1.43;100.00;99941.38;6240336;22;20505;-72
2023/03/27 00:30:44;;;;;;;9.32;2.00;;;;;;;1.46;100.00;99941.97;6239574;23;20027;-72
2023/03/27 00:33:11;;;;;;;12.25;2.05;;;;;;;1.34;100.00;99945.59;6239629;23;20020;-71
2023/03/27 00:35:38;;;;;;;7.57;1.98;;;;;;;1.30;100.00;99954.72;6240845;23;20095;-72
2023/03/27 00:38:04;;;;;;;10.23;1.88;;;;;;;1.32;100.00;99955.44;6240926;23;20024;-72
2023/03/27 00:40:31;;;;;;;7.82;1.80;;;;;;;1.25;100.00;99963.00;6240359;23;20028;-72
2023/03/27 00:42:58;;;;;;;6.93;1.52;;;;;;;1.34;100.00;99961.44;6241872;23;20468;-72
2023/03/27 00:45:28;;;;;;;14.02;2.30;;;;;;;1.22;100.00;99967.66;6240421;23;20062;-72
2023/03/27 00:48:02;;;;;;;11.85;2.33;;;;;;;1.24;100.00;99974.53;6241829;23;20345;-72
2023/03/27 00:50:33;;;;;;;6.75;1.67;;;;;;;1.28;100.00;99975.13;6241749;23;20020;-72
2023/03/27 00:53:08;;;;;;;12.10;2.05;;;;;;;1.25;100.00;99978.00;6240862;23;20402;-71
2023/03/27 00:55:39;;;;;;;8.55;1.67;;;;;;;1.26;100.00;99984.97;6237453;23;20396;-72
2023/03/27 00:58:10;;;;;;;8.30;1.67;;;;;;;1.15;100.00;99977.88;6240064;23;20384;-71
2023/03/27 01:00:37;;;;;;;6.07;1.63;;;;;;;1.21;100.00;99980.03;6240383;23;20024;-72
2023/03/27 01:03:06;;;;;;;12.13;2.13;;;;;;;1.21;100.00;99982.69;6240402;23;20024;-72
2023/03/27 01:09:13;;;;;;;10.43;2.05;;;;;;;1.10;100.00;99989.75;6239436;23;20074;-71
2023/03/27 01:12:11;;;;;;;12.70;2.08;;;;;;;1.03;100.00;100002.59;6239628;23;20086;-72
2023/03/27 01:14:46;;;;;;;8.65;2.05;;;;;;;1.04;100.00;100000.78;6238614;23;20055;-71
2023/03/27 01:17:48;;;;;;;9.48;1.83;;;;;;;0.98;100.00;100004.72;6238778;23;20030;-72
2023/03/27 01:20:35;;;;;;;7.00;1.80;;;;;;;0.94;100.00;99996.19;6239103;23;20397;-72
2023/03/27 01:23:28;;;;;;;13.80;2.33;;;;;;;0.90;100.00;100010.59;6240443;23;20023;-71
2023/03/27 01:26:26;;;;;;;7.03;1.80;;;;;;;0.96;100.00;100017.22;6240051;23;20012;-71
2023/03/27 01:29:08;;;;;;;7.78;1.70;;;;;;;0.78;100.00;100022.09;6240916;23;20020;-72
2023/03/27 01:32:16;;;;;;;10.90;2.15;;;;;;;0.86;100.00;100034.72;6239755;23;20439;-71
2023/03/27 01:34:56;;;;;;;6.07;1.67;;;;;;;0.85;100.00;100031.25;6239529;23;20028;-72
2023/03/27 01:37:46;;;;;;;8.02;1.83;;;;;;;0.82;100.00;100033.28;6239743;23;20028;-72
2023/03/27 01:40:13;;;;;;;5.10;1.63;;;;;;;0.96;100.00;100035.72;6239338;23;20156;-72
2023/03/27 01:42:58;;;;;;;8.85;1.92;;;;;;;0.88;100.00;100038.91;6239348;23;20095;-72
2023/03/27 01:45:30;;;;;;;8.23;2.13;;;;;;;0.66;100.00;100052.03;6240594;23;20031;-72
2023/03/27 01:48:05;;;;;;;10.32;1.85;;;;;;;0.75;100.00;100054.00;6241424;23;20020;-71
2023/03/27 01:50:46;;;;;;;16.17;3.83;;;;;;;0.83;100.00;100056.91;6241508;23;20028;-72
2023/03/27 01:53:22;;;;;;;6.75;1.95;;;;;;;0.69;100.00;100057.09;6243016;23;20031;-71
2023/03/27 01:55:57;;;;;;;12.07;1.90;;;;;;;0.69;100.00;100059.72;6241667;23;20030;-71
2023/03/27 01:58:30;;;;;;;5.63;1.77;;;;;;;0.73;100.00;100059.38;6243221;23;20028;-71
2023/03/27 02:01:02;;;;;;;8.52;1.73;;;;;;;0.62;100.00;100063.78;6242110;23;20275;-71
2023/03/27 02:03:51;;;;;;;8.85;1.80;;;;;;;0.68;100.00;100068.63;6242156;23;20086;-72
2023/03/27 02:06:27;;;;;;;7.88;1.73;;;;;;;0.60;100.00;100066.50;6196886;23;20020;-71
2023/03/27 02:08:53;;;;;;;11.60;1.48;;;;;;;0.70;100.00;100070.16;6241661;23;20031;-71
2023/03/27 02:11:25;;;;;;;7.00;2.50;;;;;;;0.74;100.00;100070.78;6241114;23;20027;-71
2023/03/27 02:14:14;;;;;;;5.85;1.60;;;;;;;0.57;100.00;100068.53;6242387;23;20024;-72
2023/03/27 02:16:47;;;;;;;6.25;1.85;;;;;;;0.63;100.00;100074.22;6179410;23;20096;-71
2023/03/27 02:19:22;;;;;;;8.25;2.35;;;;;;;0.60;100.00;100082.34;6178429;23;20071;-71
2023/03/27 02:21:48;;;;;;;5.47;1.88;;;;;;;0.54;100.00;100082.81;6180420;23;20029;-72
2023/03/27 02:24:18;;;;;;;4.40;1.58;;;;;;;0.60;100.00;100094.72;6179464;23;20021;-72
2023/03/27 02:26:50;;;;;;;10.25;1.75;;;;;;;0.38;100.00;100098.91;6180094;23;20031;-72
2023/03/27 02:29:32;;;;;;;6.53;1.52;;;;;;;0.40;100.00;100107.56;6168426;23;20028;-71
2023/03/27 02:32:31;;;;;;;3.67;1.17;;;;;;;0.52;100.00;100109.31;6180644;23;20028;-72
2023/03/27 02:35:16;;;;;;;8.60;2.13;;;;;;;0.51;100.00;100105.00;6180115;23;20033;-72
2023/03/27 02:38:08;;;;;;;5.45;1.40;;;;;;;0.46;100.00;100117.66;6179651;23;20453;-71
2023/03/27 02:40:54;;;;;;;7.50;1.65;;;;;;;0.41;100.00;100119.78;6179848;23;20044;-71
2023/03/27 02:44:03;;;;;;;3.72;1.25;;;;;;;0.31;100.00;100124.03;6179308;23;20331;-71
2023/03/27 02:46:40;;;;;;;5.75;1.50;;;;;;;0.42;100.00;100128.56;6087314;23;20097;-72
2023/03/27 02:49:13;;;;;;;4.82;1.75;;;;;;;0.24;100.00;100138.63;6088910;23;20026;-72
2023/03/27 02:51:52;;;;;;;6.80;1.10;;;;;;;0.24;100.00;100142.09;6088827;23;20022;-73
2023/03/27 02:54:24;;;;;;;4.55;1.20;;;;;;;0.19;100.00;100153.91;6087950;23;20023;-71
2023/03/27 02:56:57;;;;;;;3.72;1.27;;;;;;;0.19;100.00;100157.41;6089117;23;20022;-72
2023/03/27 02:59:34;;;;;;;5.35;1.15;;;;;;;0.14;100.00;100159.53;6089012;23;20042;-71
2023/03/27 03:02:08;;;;;;;7.95;1.38;;;;;;;0.03;100.00;100164.69;6087475;23;20022;-72
2023/03/27 03:04:40;;;;;;;5.47;1.20;;;;;;;-0.11;100.00;100173.56;6088034;23;20348;-71
2023/03/27 03:07:10;;;;;;;4.47;1.00;;;;;;;-0.03;100.00;100171.22;6089034;23;20101;-72
2023/03/27 03:09:37;;;;;;;4.28;1.13;;;;;;;0.09;100.00;100171.31;6087830;23;20026;-72
2023/03/27 03:12:06;;;;;;;3.00;1.25;;;;;;;0.02;100.00;100181.47;6087768;23;20429;-71
2023/03/27 03:14:37;;;;;;;3.87;0.87;;;;;;;-0.00;100.00;100178.09;6046056;23;1094809;-71
2023/03/27 03:17:04;;;;;;;4.95;1.17;;;;;;;-0.02;100.00;100183.50;6120178;23;20093;-71
2023/03/27 03:19:31;;;;;;;4.93;0.98;;;;;;;-0.02;100.00;100185.25;6132685;23;20093;-71
2023/03/27 03:21:57;;;;;;;5.20;1.00;;;;;;;-0.04;100.00;100190.66;6211781;23;20021;-72
2023/03/27 03:24:26;;;;;;;5.30;1.00;;;;;;;-0.18;100.00;100198.66;6211203;23;20397;-71
2023/03/27 03:26:52;;;;;;;5.78;1.27;;;;;;;-0.22;100.00;100205.09;6182012;23;20441;-71
2023/03/27 03:29:19;;;;;;;3.83;1.13;;;;;;;-0.19;100.00;100205.72;6228300;22;20021;-71
2023/03/27 03:31:45;;;;;;;4.80;1.05;;;;;;;-0.22;100.00;100210.38;6208784;23;20066;-71
2023/03/27 03:34:15;;;;;;;4.30;1.20;;;;;;;-0.12;100.00;100226.38;6210566;23;20044;-71
2023/03/27 03:36:43;;;;;;;7.18;1.60;;;;;;;-0.19;100.00;100224.19;6211571;23;20024;-72
2023/03/27 03:39:11;;;;;;;5.95;1.65;;;;;;;-0.19;100.00;100220.72;6210521;23;20023;-71
2023/03/27 03:41:38;;;;;;;5.15;1.52;;;;;;;-0.29;100.00;100225.75;6210864;23;20024;-71
2023/03/27 03:44:04;;;;;;;7.55;1.52;;;;;;;-0.24;100.00;100226.28;6211495;23;20017;-72
2023/03/27 03:46:31;;;;;;;3.25;1.30;;;;;;;-0.25;100.00;100236.94;6210781;23;20076;-71
2023/03/27 03:48:57;;;;;;;7.10;1.75;;;;;;;-0.28;100.00;100237.97;6209861;23;20040;-71
2023/03/27 03:51:25;;;;;;;8.38;1.58;;;;;;;-0.35;100.00;100241.97;6201834;23;20484;-72
2023/03/27 03:53:51;;;;;;;5.60;1.67;;;;;;;-0.30;100.00;100239.84;6210532;23;20017;-71
2023/03/27 03:56:18;;;;;;;3.17;1.20;;;;;;;-0.47;100.00;100243.63;6197630;23;20052;-71
2023/03/27 03:58:44;;;;;;;4.25;1.00;;;;;;;-0.48;100.00;100252.47;6211747;23;20099;-71
2023/03/27 04:01:11;;;;;;;4.75;1.13;;;;;;;-0.53;100.00;100254.56;6210090;23;20357;-72
2023/03/27 04:03:38;;;;;;;3.67;1.02;;;;;;;-0.58;100.00;100258.44;6211211;23;20096;-71
2023/03/27 04:06:06;;;;;;;1.98;1.10;;;;;;;-0.53;100.00;100259.84;6210368;23;20012;-71
2023/03/27 04:08:33;;;;;;;3.63;1.38;;;;;;;-0.53;100.00;100256.38;6208859;23;20099;-71
2023/03/27 04:11:00;;;;;;;3.63;1.38;;;;;;;-0.46;100.00;100258.50;6204172;23;20051;-71
2023/03/27 04:13:26;;;;;;;4.45;1.42;;;;;;;-0.61;100.00;100263.91;6212239;23;20028;-71
2023/03/27 04:15:54;;;;;;;5.43;1.10;;;;;;;-0.72;100.00;100260.16;6230431;23;20432;-72
2023/03/27 04:18:31;;;;;;;2.10;1.10;;;;;;;-0.77;100.00;100269.34;6239911;23;20036;-72
2023/03/27 04:20:58;;;;;;;1.85;1.10;;;;;;;-0.77;100.00;100271.97;6238454;23;20020;-71
2023/03/27 04:23:31;;;;;;;4.70;1.25;;;;;;;-0.74;100.00;100279.69;6240338;23;20016;-70
2023/03/27 04:25:59;;;;;;;5.82;1.23;;;;;;;-0.73;100.00;100279.56;6240882;23;20020;-71
2023/03/27 04:28:26;;;;;;;5.47;1.40;;;;;;;-0.76;100.00;100273.66;6240594;22;20107;-72
2023/03/27 04:30:53;;;;;;;4.75;1.58;;;;;;;-0.78;100.00;100286.06;6239089;23;20052;-71
2023/03/27 04:33:21;;;;;;;5.03;1.40;;;;;;;-0.86;100.00;100293.63;6239825;23;20028;-71
2023/03/27 04:35:51;;;;;;;8.88;1.38;;;;;;;-0.86;100.00;100296.25;6239627;23;20020;-71
2023/03/27 04:38:36;;;;;;;2.75;1.30;;;;;;;-0.97;100.00;100291.66;6240071;23;20043;-71
2023/03/27 04:41:04;;;;;;;5.73;1.47;;;;;;;-0.95;100.00;100300.31;6240628;23;20099;-71
2023/03/27 04:43:30;;;;;;;4.50;1.40;;;;;;;-0.95;100.00;100302.94;6238351;23;20016;-71
2023/03/27 04:45:57;;;;;;;4.90;1.77;;;;;;;-0.99;100.00;100304.06;6231002;23;20023;-71
2023/03/27 04:48:23;;;;;;;3.83;1.60;;;;;;;-0.92;100.00;100306.25;6239682;23;20471;-71
2023/03/27 04:50:50;;;;;;;7.57;1.95;;;;;;;-0.87;100.00;100310.38;6239704;23;20027;-70
2023/03/27 04:53:19;;;;;;;5.38;1.73;;;;;;;-0.79;100.00;100308.06;6238405;23;20475;-72
2023/03/27 04:55:49;;;;;;;6.72;1.40;;;;;;;-0.93;100.00;100315.06;6239230;23;20496;-71
2023/03/27 04:58:17;;;;;;;5.68;1.92;;;;;;;-0.84;100.00;100318.91;6240418;23;20020;-71
2023/03/27 05:00:49;;;;;;;10.15;1.70;;;;;;;-0.95;100.00;100324.88;6239381;23;20028;-71
2023/03/27 05:03:19;;;;;;;5.47;1.40;;;;;;;-1.01;100.00;100337.56;6237329;23;20020;-71
2023/03/27 05:05:48;;;;;;;7.00;1.73;;;;;;;-0.98;100.00;100338.22;6204650;23;20027;-71
2023/03/27 05:08:15;;;;;;;3.63;1.35;;;;;;;-1.00;100.00;100347.97;6235634;23;20039;-71
2023/03/27 05:10:43;;;;;;;2.35;1.52;;;;;;;-0.98;100.00;100355.81;6240246;23;20016;-71
2023/03/27 05:13:09;;;;;;;3.95;1.73;;;;;;;-0.96;100.00;100356.53;6239168;23;20095;-71
2023/03/27 05:15:37;;;;;;;7.28;1.55;;;;;;;-0.96;100.00;100351.28;6240893;23;20016;-71
2023/03/27 05:18:05;;;;;;;4.32;1.33;;;;;;;-0.99;100.00;100359.34;6240089;23;20023;-71
2023/03/27 05:20:33;;;;;;;5.68;1.40;;;;;;;-0.96;100.00;100365.28;6242309;23;20047;-72
2023/03/27 05:22:59;;;;;;;3.10;1.30;;;;;;;-1.04;100.00;100370.19;6242575;23;20103;-71
2023/03/27 05:25:27;;;;;;;2.05;1.33;;;;;;;-1.07;100.00;100367.72;6241384;23;20516;-72
2023/03/27 05:27:54;;;;;;;2.50;1.33;;;;;;;-1.04;100.00;100369.34;6241146;22;20388;-71
2023/03/27 05:30:22;;;;;;;5.53;1.10;;;;;;;-1.04;100.00;100372.81;6242142;23;20032;-71
2023/03/27 05:32:53;;;;;;;9.02;4.18;;;;;;;-1.14;100.00;100377.78;6241918;23;20044;-71
2023/03/27 05:35:22;;;;;;;7.18;2.05;;;;;;;-1.11;100.00;100376.75;6241540;23;20027;-71
2023/03/27 05:37:51;;;;;;;5.88;1.40;;;;;;;-1.08;100.00;100379.22;6240461;23;20481;-72
2023/03/27 05:40:21;;;;;;;9.93;1.95;;;;;;;-1.09;100.00;100380.16;6241917;23;20042;-71
2023/03/27 05:42:49;;;;;;;6.22;1.30;;;;;;;-0.98;100.00;100390.03;6241049;23;20107;-72
2023/03/27 05:45:16;;;;;;;4.32;1.70;;;;;;;-1.04;100.00;100401.78;6241740;23;20016;-71
2023/03/27 05:47:48;;;;;;;8.05;1.40;;;;;;;-1.05;100.00;100401.88;6241746;23;20051;-71
2023/03/27 05:50:16;;;;;;;2.13;1.60;;;;;;;-1.04;100.00;100406.19;6241648;23;20091;-72
2023/03/27 05:52:44;;;;;;;5.40;1.80;;;;;;;-0.96;100.00;100417.09;6241595;23;20024;-72
2023/03/27 05:55:11;;;;;;;4.93;1.67;;;;;;;-0.93;100.00;100420.38;6241683;23;20012;-72
2023/03/27 05:57:40;;;;;;;8.48;2.00;;;;;;;-1.01;100.00;100417.38;6242504;23;20040;-73
2023/03/27 06:00:10;;;;;;;5.72;1.83;;;;;;;-1.01;100.00;100420.03;6242403;23;20016;-74
2023/03/27 06:02:37;;;;;;;8.98;1.50;;;;;;;-1.00;100.00;100428.75;6239871;23;20024;-73
2023/03/27 06:05:09;;;;;;;5.90;2.25;;;;;;;-0.86;100.00;100435.81;6241969;23;20509;-74
2023/03/27 06:07:39;;;;;;;4.05;1.65;;;;;;;-0.72;100.00;100433.19;6242377;23;20030;-74
2023/03/27 06:10:11;;;;;;;10.32;1.80;;;;;;;-0.83;100.00;100439.13;6233900;23;20394;-73
2023/03/27 06:12:40;;;;;;;9.75;2.20;;;;;;;-0.79;100.00;100439.78;6241047;23;20472;-74
2023/03/27 06:15:08;;;;;;;6.15;1.60;;;;;;;-0.59;100.00;100444.66;6242087;23;20020;-73
2023/03/27 06:17:38;;;;;;;4.32;1.40;;;;;;;-0.51;100.00;100457.34;6241095;23;20065;-74
2023/03/27 06:20:14;;;;;;;4.28;1.42;;;;;;;-0.19;100.00;100447.44;6241694;23;20063;-74
2023/03/27 06:22:46;;;;;;;4.97;1.80;;;;;;;-0.13;100.00;100457.56;6240931;23;20388;-73
2023/03/27 06:25:14;;;;;;;5.38;1.92;;;;;;;-0.01;100.00;100459.44;6231897;23;20020;-73
2023/03/27 06:27:45;;;;;;;8.07;1.90;;;;;;;0.16;100.00;100465.41;6242351;22;20042;-74
2023/03/27 06:30:17;;;;;;;3.65;1.23;;;;;;;0.46;100.00;100465.19;6241404;23;20091;-74
2023/03/27 06:32:45;;;;;;;6.22;2.03;;;;;;;0.65;100.00;100464.81;6242158;23;20027;-74
2023/03/27 06:35:15;;;;;;;7.10;1.90;;;;;;;1.01;100.00;100472.03;6241055;23;20027;-74
2023/03/27 06:37:45;;;;;;;5.15;1.95;;;;;;;1.04;100.00;100468.34;6240598;23;20027;-73
2023/03/27 06:40:21;;;;;;;6.22;1.88;;;;;;;1.34;100.00;100478.59;6241709;23;20016;-73
2023/03/27 06:42:59;;;;;;;3.60;1.70;;;;;;;1.16;100.00;100473.66;6240445;23;20079;-74
2023/03/27 06:45:40;;;;;;;18.23;2.85;;;;;;;1.19;100.00;100480.50;6241429;23;20047;-74
2023/03/27 06:48:07;;;;;;;5.37;1.80;;;;;;;1.00;100.00;100486.19;6242306;23;20031;-74
2023/03/27 06:50:46;;;;;;;11.52;1.77;;;;;;;0.99;100.00;100490.66;6241822;23;20357;-74
2023/03/27 06:53:15;;;;;;;9.45;1.75;;;;;;;1.10;100.00;100497.84;6241550;23;20023;-74
2023/03/27 06:55:53;;;;;;;2.88;1.10;;;;;;;1.02;100.00;100502.78;6240850;23;20140;-74
2023/03/27 06:58:20;;;;;;;4.53;1.13;;;;;;;0.77;100.00;100514.16;6241253;23;20100;-74
2023/03/27 07:00:48;;;;;;;3.83;1.58;;;;;;;0.83;100.00;100507.63;6240135;23;20020;-74
2023/03/27 07:03:16;;;;;;;3.28;1.35;;;;;;;0.80;100.00;100519.22;6240643;23;20094;-74
2023/03/27 07:05:44;;;;;;;8.57;1.70;;;;;;;0.93;100.00;100517.47;6241152;23;20046;-74
2023/03/27 07:08:13;;;;;;;3.17;1.48;;;;;;;0.95;100.00;100515.59;6241766;23;20019;-73
2023/03/27 07:10:51;;;;;;;5.78;1.70;;;;;;;1.12;100.00;100514.41;6240693;23;20404;-73
2023/03/27 07:13:36;;;;;;;8.93;1.65;;;;;;;0.84;100.00;100520.72;6240337;23;20341;-73
2023/03/27 07:16:03;;;;;;;4.38;1.70;;;;;;;1.07;100.00;100526.25;6240579;23;20035;-73
2023/03/27 07:18:30;;;;;;;4.35;1.90;;;;;;;1.70;100.00;100523.59;6240311;23;20020;-73
2023/03/27 07:20:56;;;;;;;6.45;1.65;;;;;;;2.24;100.00;100527.75;6240432;23;20031;-74
2023/03/27 07:23:23;;;;;;;5.80;1.65;;;;;;;2.20;100.00;100526.28;6240682;23;20031;-73
2023/03/27 07:25:51;;;;;;;4.32;1.40;;;;;;;2.45;100.00;100524.50;6241418;23;20354;-74
2023/03/27 07:28:18;;;;;;;4.57;1.58;;;;;;;2.76;100.00;100531.03;6241012;22;20020;-73
2023/03/27 07:30:45;;;;;;;3.75;1.20;;;;;;;2.90;95.75;100539.63;6241244;23;20026;-74
2023/03/27 07:33:11;;;;;;;9.63;1.80;;;;;;;2.41;100.00;100531.81;6242541;23;20352;-74
2023/03/27 07:35:44;;;;;;;5.80;1.80;;;;;;;2.68;99.09;100539.50;6239318;23;20020;-74
2023/03/27 07:38:11;;;;;;;8.32;1.38;;;;;;;3.58;89.37;100550.34;6241243;23;20023;-74
2023/03/27 07:40:37;;;;;;;6.90;1.20;;;;;;;4.02;82.29;100548.69;6240012;23;20016;-73
2023/03/27 07:43:06;;;;;;;6.05;1.60;;;;;;;4.03;79.47;100547.72;6240043;23;20051;-73
2023/03/27 07:45:33;;;;;;;3.33;1.77;;;;;;;4.08;81.00;100538.41;6241375;23;20357;-73
2023/03/27 07:48:08;;;;;;;6.97;1.90;;;;;;;4.45;72.56;100546.13;6241427;23;20024;-73
2023/03/27 07:50:36;;;;;;;6.75;1.50;;;;;;;4.05;74.75;100548.44;6240199;23;20024;-74
2023/03/27 07:53:05;;;;;;;2.42;1.45;;;;;;;4.38;72.99;100547.56;6240610;23;20016;-73
2023/03/27 07:55:32;;;;;;;6.18;1.80;;;;;;;3.58;75.23;100547.72;6240856;23;20021;-73
2023/03/27 07:57:59;;;;;;;4.95;1.52;;;;;;;2.73;81.53;100555.94;6238928;23;20023;-73
2023/03/27 08:00:29;;;;;;;4.90;1.23;;;;;;;2.42;87.12;100542.28;6239755;23;20313;-73
2023/03/27 08:03:05;;;;;;;7.15;1.30;;;;;;;3.10;84.64;100554.03;6240645;23;20012;-73
2023/03/27 08:05:33;;;;;;;3.35;1.30;;;;;;;3.75;76.41;100555.19;6201775;23;20048;-73
2023/03/27 08:08:00;;;;;;;2.28;1.20;;;;;;;3.39;77.64;100543.00;6239427;23;20016;-73
2023/03/27 08:10:26;;;;;;;1.70;0.77;;;;;;;3.52;75.73;100550.88;6238969;23;20031;-73
2023/03/27 08:12:53;;;;;;;7.75;1.60;;;;;;;3.22;76.92;100544.28;6240800;23;20019;-73
2023/03/27 08:15:20;;;;;;;8.05;1.48;;;;;;;3.69;74.58;100541.56;6238207;23;20326;-73
2023/03/27 08:17:46;;;;;;;3.75;1.30;;;;;;;3.46;72.51;100543.38;6240159;23;20099;-73
2023/03/27 08:20:14;;;;;;;2.53;1.20;;;;;;;4.07;69.63;100542.06;6241518;23;20437;-73
2023/03/27 08:22:40;;;;;;;4.65;1.48;;;;;;;3.54;70.80;100556.88;6240084;23;20020;-74
2023/03/27 08:25:09;;;;;;;2.47;1.13;;;;;;;3.22;72.50;100556.69;6238026;23;20038;-73
2023/03/27 08:27:35;;;;;;;8.60;1.48;;;;;;;4.15;69.53;100560.00;6239546;22;20086;-73
2023/03/27 08:30:03;;;;;;;5.88;1.73;;;;;;;3.73;70.19;100570.41;6240274;23;20456;-73
2023/03/27 08:32:30;;;;;;;2.92;1.10;;;;;;;3.24;74.37;100571.53;6241737;23;20361;-73
2023/03/27 08:34:57;;;;;;;4.55;1.20;;;;;;;3.07;73.89;100564.00;6241258;23;20019;-74
2023/03/27 08:37:23;;;;;;;5.68;1.30;;;;;;;2.91;75.05;100575.75;6241261;23;20019;-73
2023/03/27 08:39:50;;;;;;;34.75;8.48;;;;;;;2.80;75.89;100573.06;6241596;23;20020;-74
2023/03/27 08:42:33;;;;;;;6.63;2.08;;;;;;;2.86;75.03;100575.25;6242132;23;20019;-74
2023/03/27 08:45:13;;;;;;;5.20;1.27;;;;;;;2.90;76.06;100584.66;6241748;23;20019;-74
2023/03/27 08:47:46;;;;;;;2.80;1.30;;;;;;;3.06;74.47;100580.84;6241933;23;20024;-74
2023/03/27 08:50:39;;;;;;;3.55;1.55;;;;;;;2.69;74.62;100588.06;6242029;23;20012;-73
2023/03/27 08:53:17;;;;;;;5.50;2.08;;;;;;;3.29;73.58;100601.19;6240820;23;20022;-73
2023/03/27 08:55:45;;;;;;;4.65;1.20;;;;;;;4.39;64.26;100609.50;6241577;23;20020;-73
2023/03/27 08:58:18;;;;;;;4.45;1.10;;;;;;;4.08;62.77;100606.59;6239969;23;20352;-73
2023/03/27 09:00:54;;;;;;;4.07;0.90;;;;;;;3.88;62.25;100608.16;6242641;23;20021;-74
2023/03/27 09:03:30;;;;;;;2.90;1.20;;;;;;;4.72;60.88;100613.91;6240149;23;20028;-73
2023/03/27 09:06:05;;;;;;;7.68;1.38;;;;;;;4.53;59.56;100604.78;6241937;23;20027;-73
2023/03/27 09:08:46;;;;;;;4.35;1.20;;;;;;;4.25;61.78;100611.41;6242101;23;20109;-72
2023/03/27 09:11:43;;;;;;;6.32;1.48;;;;;;;4.53;59.99;100620.72;6241652;23;20400;-73
2023/03/27 09:14:34;;;;;;;2.72;1.00;;;;;;;4.77;58.16;100617.03;6241297;23;20025;-73
2023/03/27 09:17:10;;;;;;;4.70;1.60;;;;;;;4.71;56.83;100615.72;6240828;23;20024;-73
2023/03/27 09:19:52;;;;;;;4.95;2.08;;;;;;;4.21;58.46;100633.88;6240546;23;20020;-73
2023/03/27 09:22:43;;;;;;;2.65;1.00;;;;;;;4.87;57.12;100625.09;6241214;23;20020;-73
2023/03/27 09:25:28;;;;;;;6.00;1.13;;;;;;;4.89;55.48;100625.81;6240647;23;20134;-73
2023/03/27 09:27:56;;;;;;;3.80;1.25;;;;;;;5.69;52.91;100627.97;6241801;22;20022;-73
2023/03/27 09:30:28;;;;;;;4.05;0.90;;;;;;;6.36;51.11;100622.16;6242413;23;20527;-73
2023/03/27 09:32:58;;;;;;;6.60;1.10;;;;;;;6.84;49.31;100624.09;6242321;23;20085;-73
2023/03/27 09:35:25;;;;;;;2.50;0.80;;;;;;;6.85;48.83;100620.44;6241601;23;20113;-73
2023/03/27 09:37:59;;;;;;;2.88;1.10;;;;;;;6.59;47.97;100630.75;6241500;23;20031;-73
2023/03/27 09:40:44;;;;;;;3.22;1.23;;;;;;;5.86;49.53;100634.50;6244260;23;20396;-72
2023/03/27 09:43:18;;;;;;;5.25;2.13;;;;;;;5.91;48.79;100629.66;6241772;23;20457;-73
2023/03/27 09:45:47;;;;;;;9.77;1.50;;;;;;;6.56;47.55;100627.53;6241910;23;20016;-73
2023/03/27 09:48:32;;;;;;;9.30;1.90;;;;;;;6.16;48.09;100623.03;6240248;23;20027;-73
2023/03/27 09:50:59;;;;;;;7.82;1.75;;;;;;;5.58;49.27;100623.56;6241147;23;20432;-74
2023/03/27 09:53:26;;;;;;;5.82;1.30;;;;;;;5.08;50.79;100635.78;6241887;23;20095;-73
2023/03/27 09:56:04;;;;;;;7.65;1.60;;;;;;;4.57;52.56;100632.78;6241488;23;20111;-73
2023/03/27 09:58:38;;;;;;;7.32;1.73;;;;;;;3.99;53.79;100640.00;6241372;23;20394;-73
2023/03/27 10:01:06;;;;;;;7.90;1.70;;;;;;;5.18;51.14;100634.91;6241226;23;20024;-73
2023/03/27 10:03:38;;;;;;;3.55;1.30;;;;;;;6.74;47.67;100633.03;6242292;23;20024;-73
2023/03/27 10:06:08;;;;;;;8.10;2.00;;;;;;;6.13;46.81;100634.78;6243440;23;20024;-73
2023/03/27 10:08:40;;;;;;;7.45;2.08;;;;;;;5.75;47.86;100630.94;6244943;23;20490;-71
2023/03/27 10:11:15;;;;;;;3.70;1.40;;;;;;;5.69;47.60;100627.97;6251128;23;20048;-72
2023/03/27 10:13:47;;;;;;;4.95;1.30;;;;;;;5.15;48.09;100623.69;6251482;23;20107;-72
2023/03/27 10:16:16;;;;;;;9.27;1.30;;;;;;;5.11;49.66;100631.06;6249737;23;20031;-71
2023/03/27 10:18:48;;;;;;;5.93;1.20;;;;;;;5.73;49.31;100632.91;6251094;23;20023;-72
2023/03/27 10:21:24;;;;;;;2.63;1.00;;;;;;;5.65;48.99;100632.72;6250091;23;20457;-72
2023/03/27 10:23:57;;;;;;;4.00;1.20;;;;;;;6.14;47.05;100651.59;6250738;23;20020;-71
2023/03/27 10:26:26;;;;;;;2.90;0.90;;;;;;;5.31;46.85;100647.16;6250787;23;20052;-72
2023/03/27 10:29:00;;;;;;;2.38;0.98;;;;;;;4.92;46.73;100654.81;6250445;22;20016;-73
2023/03/27 10:31:28;;;;;;;2.85;0.82;;;;;;;6.06;45.14;100641.63;6248432;23;20035;-73
2023/03/27 10:33:59;;;;;;;6.13;1.50;;;;;;;6.55;44.75;100653.34;6221991;23;20030;-73
2023/03/27 10:36:26;;;;;;;3.67;1.63;;;;;;;7.04;43.63;100640.09;6248928;23;20095;-72
2023/03/27 10:39:00;;;;;;;3.25;1.35;;;;;;;6.36;43.29;100651.47;6250934;23;20020;-72
2023/03/27 10:41:29;;;;;;;3.70;1.45;;;;;;;5.77;44.75;100649.47;6247793;23;20048;-72
2023/03/27 10:43:56;;;;;;;5.03;1.30;;;;;;;6.67;44.75;100659.44;6245596;23;20024;-72
2023/03/27 12:01:40;;;;;;;4.53;1.17;;;;;;;13.89;31.66;100654.06;6172932;22;20009;-74
2023/03/27 12:04:13;;;;;;;5.53;2.28;;;;;;;13.83;29.80;100651.06;6214412;22;20020;-75
2023/03/27 12:06:54;;;;;;;4.70;1.77;;;;;;;14.47;29.37;100650.53;6270435;22;20012;-74
2023/03/27 12:52:38;;;;;;;4.15;1.45;;;;;;;11.42;34.93;100677.63;6191343;22;20013;-72
2023/03/27 12:55:17;;;;;;;4.00;1.55;;;;;;;8.62;36.99;100671.56;6211578;23;20043;-73
2023/03/27 12:57:45;;;;;;;5.15;1.75;;;;;;;8.97;38.08;100670.78;6211711;23;20044;-72
2023/03/27 13:00:20;;;;;;;4.47;1.77;;;;;;;7.66;39.92;100671.69;6211914;23;20023;-72
2023/03/27 13:03:01;;;;;;;4.05;1.35;;;;;;;6.73;42.05;100680.19;6212531;23;20035;-73
2023/03/27 13:05:28;;;;;;;9.80;2.00;;;;;;;5.72;45.05;100700.41;6211072;23;20361;-73
2023/03/27 13:08:16;;;;;;;10.20;2.00;;;;;;;4.96;48.38;100730.69;6212822;23;20100;-73
2023/03/27 13:11:00;;;;;;;5.68;1.38;;;;;;;4.28;51.26;100720.06;6212836;23;20051;-72
2023/03/27 13:13:57;;;;;;;4.57;1.33;;;;;;;4.32;50.59;100713.53;6209625;23;20112;-73
2023/03/27 13:16:24;;;;;;;6.40;1.50;;;;;;;4.44;49.34;100721.53;6212329;23;20095;-72
2023/03/27 13:19:19;;;;;;;4.38;1.30;;;;;;;4.16;48.47;100707.72;6212357;23;20418;-72
2023/03/27 13:21:54;;;;;;;4.70;1.30;;;;;;;4.08;48.99;100720.75;6185514;23;20406;-72
2023/03/27 13:24:37;;;;;;;5.55;1.08;;;;;;;4.04;49.86;100719.31;6212171;23;20358;-71
2023/03/27 13:27:20;;;;;;;5.22;1.50;;;;;;;4.06;49.09;100717.38;6182431;23;20087;-72
2023/03/27 13:29:50;;;;;;;4.70;1.02;;;;;;;3.80;47.52;100728.19;6211606;23;20021;-73
2023/03/27 13:32:35;;;;;;;7.80;1.63;;;;;;;4.03;46.40;100717.59;6211467;23;20112;-73
2023/03/27 13:35:20;;;;;;;2.92;0.98;;;;;;;4.10;46.18;100724.13;6211522;23;20327;-72
2023/03/27 13:37:50;;;;;;;4.45;1.10;;;;;;;4.48;46.47;100729.13;6212113;23;20032;-73
2023/03/27 13:40:25;;;;;;;4.00;1.10;;;;;;;4.65;48.25;100729.63;6214302;23;20040;-72
2023/03/27 13:42:59;;;;;;;6.25;1.20;;;;;;;4.42;53.21;100729.66;6207783;23;20044;-72
2023/03/27 13:45:30;;;;;;;7.95;1.98;;;;;;;4.20;54.74;100735.72;6212173;23;20024;-73
2023/03/27 13:48:24;;;;;;;6.35;1.80;;;;;;;4.18;54.24;100727.06;6212910;23;20327;-71
2023/03/27 13:50:53;;;;;;;6.68;1.83;;;;;;;4.10;54.42;100732.97;6213288;23;20017;-73
2023/03/27 13:53:49;;;;;;;4.22;1.30;;;;;;;3.93;55.18;100738.72;6213675;23;20063;-71